sensor_id;sensor_type;location;lat;lon;timestamp;temperature;humidity
77693;SHT31;66984;47.404;18.836;2023-06-10T00:00:08;19.50;79.24
77693;SHT31;66984;47.404;18.836;2023-06-10T00:01:21;19.46;79.32
77693;SHT31;66984;47.404;18.836;2023-06-10T00:02:26;19.49;79.41
77693;SHT31;66984;47.404;18.836;2023-06-10T00:03:30;19.49;79.36
77693;SHT31;66984;47.404;18.836;2023-06-10T00:04:33;19.48;79.39
77693;SHT31;66984;47.404;18.836;2023-06-10T00:05:37;19.49;79.42
77693;SHT31;66984;47.404;18.836;2023-06-10T00:06:47;19.52;79.29
77693;SHT31;66984;47.404;18.836;2023-06-10T00:07:52;19.50;79.23
77693;SHT31;66984;47.404;18.836;2023-06-10T00:08:57;19.50;79.21
77693;SHT31;66984;47.404;18.836;2023-06-10T00:10:00;19.53;79.16
77693;SHT31;66984;47.404;18.836;2023-06-10T00:11:07;19.52;79.08
77693;SHT31;66984;47.404;18.836;2023-06-10T00:12:16;19.52;78.99
77693;SHT31;66984;47.404;18.836;2023-06-10T00:13:32;19.53;78.86
77693;SHT31;66984;47.404;18.836;2023-06-10T00:14:37;19.49;78.89
77693;SHT31;66984;47.404;18.836;2023-06-10T00:15:40;19.48;78.91
77693;SHT31;66984;47.404;18.836;2023-06-10T00:16:43;19.45;78.99
77693;SHT31;66984;47.404;18.836;2023-06-10T00:17:54;19.45;79.08
77693;SHT31;66984;47.404;18.836;2023-06-10T00:18:59;19.42;79.04
77693;SHT31;66984;47.404;18.836;2023-06-10T00:20:12;19.43;79.04
77693;SHT31;66984;47.404;18.836;2023-06-10T00:21:15;19.43;79.01
77693;SHT31;66984;47.404;18.836;2023-06-10T00:22:18;19.43;78.96
77693;SHT31;66984;47.404;18.836;2023-06-10T00:23:21;19.43;79.00
77693;SHT31;66984;47.404;18.836;2023-06-10T00:24:31;19.43;79.06
77693;SHT31;66984;47.404;18.836;2023-06-10T00:25:35;19.42;79.07
77693;SHT31;66984;47.404;18.836;2023-06-10T00:26:38;19.43;79.08
77693;SHT31;66984;47.404;18.836;2023-06-10T00:27:42;19.46;79.16
77693;SHT31;66984;47.404;18.836;2023-06-10T00:28:45;19.43;79.19
77693;SHT31;66984;47.404;18.836;2023-06-10T00:29:54;19.41;79.23
77693;SHT31;66984;47.404;18.836;2023-06-10T00:30:57;19.42;79.29
77693;SHT31;66984;47.404;18.836;2023-06-10T00:32:00;19.42;79.33
77693;SHT31;66984;47.404;18.836;2023-06-10T00:33:03;19.39;79.36
77693;SHT31;66984;47.404;18.836;2023-06-10T00:34:07;19.42;79.40
77693;SHT31;66984;47.404;18.836;2023-06-10T00:35:16;19.41;79.45
77693;SHT31;66984;47.404;18.836;2023-06-10T00:36:26;19.41;79.50
77693;SHT31;66984;47.404;18.836;2023-06-10T00:37:29;19.42;79.54
77693;SHT31;66984;47.404;18.836;2023-06-10T00:38:32;19.41;79.59
77693;SHT31;66984;47.404;18.836;2023-06-10T00:39:36;19.39;79.63
77693;SHT31;66984;47.404;18.836;2023-06-10T00:40:39;19.39;79.66
77693;SHT31;66984;47.404;18.836;2023-06-10T00:41:49;19.38;79.73
77693;SHT31;66984;47.404;18.836;2023-06-10T00:42:52;19.41;79.79
77693;SHT31;66984;47.404;18.836;2023-06-10T00:43:55;19.39;79.82
77693;SHT31;66984;47.404;18.836;2023-06-10T00:44:58;19.41;79.87
77693;SHT31;66984;47.404;18.836;2023-06-10T00:46:09;19.38;79.87
77693;SHT31;66984;47.404;18.836;2023-06-10T00:47:12;19.36;79.95
77693;SHT31;66984;47.404;18.836;2023-06-10T00:48:15;19.41;79.97
77693;SHT31;66984;47.404;18.836;2023-06-10T00:49:18;19.36;80.07
77693;SHT31;66984;47.404;18.836;2023-06-10T00:50:22;19.36;80.15
77693;SHT31;66984;47.404;18.836;2023-06-10T00:51:31;19.38;80.20
77693;SHT31;66984;47.404;18.836;2023-06-10T00:52:35;19.36;80.24
77693;SHT31;66984;47.404;18.836;2023-06-10T00:53:40;19.36;80.27
77693;SHT31;66984;47.404;18.836;2023-06-10T00:54:44;19.38;80.31
77693;SHT31;66984;47.404;18.836;2023-06-10T00:55:47;19.39;80.39
77693;SHT31;66984;47.404;18.836;2023-06-10T00:57:01;19.39;80.44
77693;SHT31;66984;47.404;18.836;2023-06-10T00:58:04;19.38;80.40
77693;SHT31;66984;47.404;18.836;2023-06-10T00:59:07;19.42;80.44
77693;SHT31;66984;47.404;18.836;2023-06-10T01:00:11;19.42;80.40
77693;SHT31;66984;47.404;18.836;2023-06-10T01:01:15;19.41;80.44
77693;SHT31;66984;47.404;18.836;2023-06-10T01:02:24;19.42;80.50
77693;SHT31;66984;47.404;18.836;2023-06-10T01:03:28;19.45;80.51
77693;SHT31;66984;47.404;18.836;2023-06-10T01:04:31;19.42;80.50
77693;SHT31;66984;47.404;18.836;2023-06-10T01:05:35;19.43;80.48
77693;SHT31;66984;47.404;18.836;2023-06-10T01:08:37;19.45;80.53
77693;SHT31;66984;47.404;18.836;2023-06-10T01:09:55;19.46;80.55
77693;SHT31;66984;47.404;18.836;2023-06-10T01:11:01;19.42;80.62
77693;SHT31;66984;47.404;18.836;2023-06-10T01:12:19;19.45;80.66
77693;SHT31;66984;47.404;18.836;2023-06-10T01:13:39;19.43;80.74
77693;SHT31;66984;47.404;18.836;2023-06-10T01:15:04;19.43;80.77
77693;SHT31;66984;47.404;18.836;2023-06-10T01:16:13;19.43;80.79
77693;SHT31;66984;47.404;18.836;2023-06-10T01:17:16;19.42;80.81
77693;SHT31;66984;47.404;18.836;2023-06-10T01:18:31;19.45;80.85
77693;SHT31;66984;47.404;18.836;2023-06-10T01:19:34;19.46;80.83
77693;SHT31;66984;47.404;18.836;2023-06-10T01:20:39;19.46;80.88
77693;SHT31;66984;47.404;18.836;2023-06-10T01:21:42;19.45;80.94
77693;SHT31;66984;47.404;18.836;2023-06-10T01:22:51;19.48;80.90
77693;SHT31;66984;47.404;18.836;2023-06-10T01:24:04;19.43;80.92
77693;SHT31;66984;47.404;18.836;2023-06-10T01:25:11;19.46;81.01
77693;SHT31;66984;47.404;18.836;2023-06-10T01:26:15;19.42;81.06
77693;SHT31;66984;47.404;18.836;2023-06-10T01:27:20;19.41;81.10
77693;SHT31;66984;47.404;18.836;2023-06-10T01:28:41;19.41;81.21
77693;SHT31;66984;47.404;18.836;2023-06-10T01:30:04;19.41;81.24
77693;SHT31;66984;47.404;18.836;2023-06-10T01:31:27;19.39;81.31
77693;SHT31;66984;47.404;18.836;2023-06-10T01:32:44;19.39;81.35
77693;SHT31;66984;47.404;18.836;2023-06-10T01:33:52;19.39;81.37
77693;SHT31;66984;47.404;18.836;2023-06-10T01:35:03;19.43;81.29
77693;SHT31;66984;47.404;18.836;2023-06-10T01:36:08;19.43;81.25
77693;SHT31;66984;47.404;18.836;2023-06-10T01:37:13;19.43;81.29
77693;SHT31;66984;47.404;18.836;2023-06-10T01:38:19;19.45;81.33
77693;SHT31;66984;47.404;18.836;2023-06-10T01:39:24;19.43;81.37
77693;SHT31;66984;47.404;18.836;2023-06-10T01:40:35;19.46;81.42
77693;SHT31;66984;47.404;18.836;2023-06-10T01:41:39;19.45;81.41
77693;SHT31;66984;47.404;18.836;2023-06-10T01:42:43;19.45;81.52
77693;SHT31;66984;47.404;18.836;2023-06-10T01:43:46;19.41;81.59
77693;SHT31;66984;47.404;18.836;2023-06-10T01:44:50;19.42;81.64
77693;SHT31;66984;47.404;18.836;2023-06-10T01:46:00;19.43;81.58
77693;SHT31;66984;47.404;18.836;2023-06-10T01:47:04;19.43;81.57
77693;SHT31;66984;47.404;18.836;2023-06-10T01:48:07;19.45;81.55
77693;SHT31;66984;47.404;18.836;2023-06-10T01:49:10;19.45;81.59
77693;SHT31;66984;47.404;18.836;2023-06-10T01:50:13;19.46;81.50
77693;SHT31;66984;47.404;18.836;2023-06-10T01:51:22;19.49;81.44
77693;SHT31;66984;47.404;18.836;2023-06-10T01:52:25;19.48;81.45
77693;SHT31;66984;47.404;18.836;2023-06-10T01:53:28;19.48;81.47
77693;SHT31;66984;47.404;18.836;2023-06-10T01:54:31;19.49;81.46
77693;SHT31;66984;47.404;18.836;2023-06-10T01:55:34;19.50;81.46
77693;SHT31;66984;47.404;18.836;2023-06-10T01:56:43;19.52;81.48
77693;SHT31;66984;47.404;18.836;2023-06-10T01:57:46;19.49;81.47
77693;SHT31;66984;47.404;18.836;2023-06-10T01:58:49;19.52;81.51
77693;SHT31;66984;47.404;18.836;2023-06-10T01:59:52;19.55;81.51
77693;SHT31;66984;47.404;18.836;2023-06-10T02:00:55;19.52;81.44
77693;SHT31;66984;47.404;18.836;2023-06-10T02:02:05;19.53;81.44
77693;SHT31;66984;47.404;18.836;2023-06-10T02:03:08;19.55;81.44
77693;SHT31;66984;47.404;18.836;2023-06-10T02:04:11;19.55;81.46
77693;SHT31;66984;47.404;18.836;2023-06-10T02:05:14;19.55;81.43
77693;SHT31;66984;47.404;18.836;2023-06-10T02:06:17;19.53;81.42
77693;SHT31;66984;47.404;18.836;2023-06-10T02:07:26;19.56;81.43
77693;SHT31;66984;47.404;18.836;2023-06-10T02:08:29;19.55;81.43
77693;SHT31;66984;47.404;18.836;2023-06-10T02:09:32;19.55;81.43
77693;SHT31;66984;47.404;18.836;2023-06-10T02:10:37;19.53;81.42
77693;SHT31;66984;47.404;18.836;2023-06-10T02:11:40;19.53;81.49
77693;SHT31;66984;47.404;18.836;2023-06-10T02:12:49;19.50;81.49
77693;SHT31;66984;47.404;18.836;2023-06-10T02:13:59;19.52;81.55
77693;SHT31;66984;47.404;18.836;2023-06-10T02:15:15;19.49;81.56
77693;SHT31;66984;47.404;18.836;2023-06-10T02:16:18;19.49;81.53
77693;SHT31;66984;47.404;18.836;2023-06-10T02:17:29;19.49;81.58
77693;SHT31;66984;47.404;18.836;2023-06-10T02:18:32;19.48;81.63
77693;SHT31;66984;47.404;18.836;2023-06-10T02:19:36;19.46;81.62
77693;SHT31;66984;47.404;18.836;2023-06-10T02:20:39;19.45;81.57
77693;SHT31;66984;47.404;18.836;2023-06-10T02:21:42;19.46;81.49
77693;SHT31;66984;47.404;18.836;2023-06-10T02:22:52;19.46;81.42
77693;SHT31;66984;47.404;18.836;2023-06-10T02:23:55;19.46;81.45
77693;SHT31;66984;47.404;18.836;2023-06-10T02:24:57;19.48;81.43
77693;SHT31;66984;47.404;18.836;2023-06-10T02:26:01;19.48;81.40
77693;SHT31;66984;47.404;18.836;2023-06-10T02:27:05;19.45;81.41
77693;SHT31;66984;47.404;18.836;2023-06-10T02:28:15;19.48;81.40
77693;SHT31;66984;47.404;18.836;2023-06-10T02:29:18;19.46;81.37
77693;SHT31;66984;47.404;18.836;2023-06-10T02:30:27;19.45;81.38
77693;SHT31;66984;47.404;18.836;2023-06-10T02:31:36;19.48;81.40
77693;SHT31;66984;47.404;18.836;2023-06-10T02:32:40;19.45;81.37
77693;SHT31;66984;47.404;18.836;2023-06-10T02:33:44;19.42;81.39
77693;SHT31;66984;47.404;18.836;2023-06-10T02:34:47;19.43;81.38
77693;SHT31;66984;47.404;18.836;2023-06-10T02:35:51;19.48;81.41
77693;SHT31;66984;47.404;18.836;2023-06-10T02:37:00;19.46;81.38
77693;SHT31;66984;47.404;18.836;2023-06-10T02:38:04;19.45;81.35
77693;SHT31;66984;47.404;18.836;2023-06-10T02:39:07;19.46;81.38
77693;SHT31;66984;47.404;18.836;2023-06-10T02:40:11;19.49;81.37
77693;SHT31;66984;47.404;18.836;2023-06-10T02:41:14;19.50;81.43
77693;SHT31;66984;47.404;18.836;2023-06-10T02:42:23;19.46;81.39
77693;SHT31;66984;47.404;18.836;2023-06-10T02:43:27;19.46;81.39
77693;SHT31;66984;47.404;18.836;2023-06-10T02:44:30;19.46;81.33
77693;SHT31;66984;47.404;18.836;2023-06-10T02:45:33;19.48;81.34
77693;SHT31;66984;47.404;18.836;2023-06-10T02:46:42;19.46;81.34
77693;SHT31;66984;47.404;18.836;2023-06-10T02:47:48;19.46;81.36
77693;SHT31;66984;47.404;18.836;2023-06-10T02:48:51;19.46;81.37
77693;SHT31;66984;47.404;18.836;2023-06-10T02:49:54;19.46;81.37
77693;SHT31;66984;47.404;18.836;2023-06-10T02:50:57;19.49;81.37
77693;SHT31;66984;47.404;18.836;2023-06-10T02:52:06;19.49;81.33
77693;SHT31;66984;47.404;18.836;2023-06-10T02:53:10;19.43;81.38
77693;SHT31;66984;47.404;18.836;2023-06-10T02:54:13;19.48;81.37
77693;SHT31;66984;47.404;18.836;2023-06-10T02:55:16;19.48;81.34
77693;SHT31;66984;47.404;18.836;2023-06-10T02:56:19;19.46;81.32
77693;SHT31;66984;47.404;18.836;2023-06-10T02:57:28;19.48;81.25
77693;SHT31;66984;47.404;18.836;2023-06-10T02:58:31;19.48;81.23
77693;SHT31;66984;47.404;18.836;2023-06-10T02:59:34;19.49;81.22
77693;SHT31;66984;47.404;18.836;2023-06-10T03:00:37;19.45;81.24
77693;SHT31;66984;47.404;18.836;2023-06-10T03:01:43;19.45;81.06
77693;SHT31;66984;47.404;18.836;2023-06-10T03:02:53;19.45;81.02
77693;SHT31;66984;47.404;18.836;2023-06-10T03:04:00;19.43;81.12
77693;SHT31;66984;47.404;18.836;2023-06-10T03:05:03;19.46;81.07
77693;SHT31;66984;47.404;18.836;2023-06-10T03:06:06;19.45;81.05
77693;SHT31;66984;47.404;18.836;2023-06-10T03:07:09;19.41;81.12
77693;SHT31;66984;47.404;18.836;2023-06-10T03:08:19;19.41;81.21
77693;SHT31;66984;47.404;18.836;2023-06-10T03:09:22;19.46;81.16
77693;SHT31;66984;47.404;18.836;2023-06-10T03:10:25;19.43;81.12
77693;SHT31;66984;47.404;18.836;2023-06-10T03:11:29;19.45;81.10
77693;SHT31;66984;47.404;18.836;2023-06-10T03:12:32;19.46;81.06
77693;SHT31;66984;47.404;18.836;2023-06-10T03:13:41;19.45;80.98
77693;SHT31;66984;47.404;18.836;2023-06-10T03:14:51;19.43;80.99
77693;SHT31;66984;47.404;18.836;2023-06-10T03:16:15;19.43;81.12
77693;SHT31;66984;47.404;18.836;2023-06-10T03:17:18;19.41;81.12
77693;SHT31;66984;47.404;18.836;2023-06-10T03:18:28;19.41;81.17
77693;SHT31;66984;47.404;18.836;2023-06-10T03:19:31;19.39;81.24
77693;SHT31;66984;47.404;18.836;2023-06-10T03:20:35;19.38;81.29
77693;SHT31;66984;47.404;18.836;2023-06-10T03:21:44;19.36;81.41
77693;SHT31;66984;47.404;18.836;2023-06-10T03:22:47;19.36;81.49
77693;SHT31;66984;47.404;18.836;2023-06-10T03:23:56;19.35;81.57
77693;SHT31;66984;47.404;18.836;2023-06-10T03:24:59;19.32;81.71
77693;SHT31;66984;47.404;18.836;2023-06-10T03:26:02;19.31;81.73
77693;SHT31;66984;47.404;18.836;2023-06-10T03:27:07;19.31;81.84
77693;SHT31;66984;47.404;18.836;2023-06-10T03:28:11;19.29;81.85
77693;SHT31;66984;47.404;18.836;2023-06-10T03:29:21;19.29;81.89
77693;SHT31;66984;47.404;18.836;2023-06-10T03:30:24;19.32;81.88
77693;SHT31;66984;47.404;18.836;2023-06-10T03:31:27;19.31;81.86
77693;SHT31;66984;47.404;18.836;2023-06-10T03:32:30;19.32;81.84
77693;SHT31;66984;47.404;18.836;2023-06-10T03:33:33;19.33;81.78
77693;SHT31;66984;47.404;18.836;2023-06-10T03:34:43;19.35;81.70
77693;SHT31;66984;47.404;18.836;2023-06-10T03:35:48;19.35;81.63
77693;SHT31;66984;47.404;18.836;2023-06-10T03:36:51;19.35;81.59
77693;SHT31;66984;47.404;18.836;2023-06-10T03:38:14;19.35;81.49
77693;SHT31;66984;47.404;18.836;2023-06-10T03:39:17;19.36;81.48
77693;SHT31;66984;47.404;18.836;2023-06-10T03:40:26;19.39;81.43
77693;SHT31;66984;47.404;18.836;2023-06-10T03:41:29;19.39;81.31
77693;SHT31;66984;47.404;18.836;2023-06-10T03:42:32;19.39;81.07
77693;SHT31;66984;47.404;18.836;2023-06-10T03:43:35;19.42;80.78
77693;SHT31;66984;47.404;18.836;2023-06-10T03:44:38;19.41;80.60
77693;SHT31;66984;47.404;18.836;2023-06-10T03:45:48;19.41;80.60
77693;SHT31;66984;47.404;18.836;2023-06-10T03:46:52;19.42;80.65
77693;SHT31;66984;47.404;18.836;2023-06-10T03:48:02;19.43;80.75
77693;SHT31;66984;47.404;18.836;2023-06-10T03:49:06;19.39;80.85
77693;SHT31;66984;47.404;18.836;2023-06-10T03:50:09;19.36;80.94
77693;SHT31;66984;47.404;18.836;2023-06-10T03:51:12;19.38;81.01
77693;SHT31;66984;47.404;18.836;2023-06-10T03:52:15;19.36;81.04
77693;SHT31;66984;47.404;18.836;2023-06-10T03:53:25;19.38;81.06
77693;SHT31;66984;47.404;18.836;2023-06-10T03:54:27;19.36;81.05
77693;SHT31;66984;47.404;18.836;2023-06-10T03:55:30;19.39;81.05
77693;SHT31;66984;47.404;18.836;2023-06-10T03:56:35;19.39;81.04
77693;SHT31;66984;47.404;18.836;2023-06-10T03:57:45;19.38;80.99
77693;SHT31;66984;47.404;18.836;2023-06-10T03:58:48;19.38;80.98
77693;SHT31;66984;47.404;18.836;2023-06-10T03:59:50;19.39;80.97
77693;SHT31;66984;47.404;18.836;2023-06-10T04:00:53;19.41;80.88
77693;SHT31;66984;47.404;18.836;2023-06-10T04:01:57;19.42;80.79
77693;SHT31;66984;47.404;18.836;2023-06-10T04:03:09;19.42;80.63
77693;SHT31;66984;47.404;18.836;2023-06-10T04:04:17;19.42;80.58
77693;SHT31;66984;47.404;18.836;2023-06-10T04:05:20;19.43;80.56
77693;SHT31;66984;47.404;18.836;2023-06-10T04:06:25;19.45;80.55
77693;SHT31;66984;47.404;18.836;2023-06-10T04:07:28;19.41;80.59
77693;SHT31;66984;47.404;18.836;2023-06-10T04:08:38;19.41;80.64
77693;SHT31;66984;47.404;18.836;2023-06-10T04:09:41;19.38;80.77
77693;SHT31;66984;47.404;18.836;2023-06-10T04:10:45;19.39;80.87
77693;SHT31;66984;47.404;18.836;2023-06-10T04:11:48;19.39;80.96
77693;SHT31;66984;47.404;18.836;2023-06-10T04:12:52;19.41;81.02
77693;SHT31;66984;47.404;18.836;2023-06-10T04:14:14;19.39;81.08
77693;SHT31;66984;47.404;18.836;2023-06-10T04:15:24;19.38;81.02
77693;SHT31;66984;47.404;18.836;2023-06-10T04:16:43;19.39;81.13
77693;SHT31;66984;47.404;18.836;2023-06-10T04:17:45;19.41;81.20
77693;SHT31;66984;47.404;18.836;2023-06-10T04:18:49;19.38;81.32
77693;SHT31;66984;47.404;18.836;2023-06-10T04:19:59;19.41;81.31
77693;SHT31;66984;47.404;18.836;2023-06-10T04:21:03;19.38;81.43
77693;SHT31;66984;47.404;18.836;2023-06-10T04:22:06;19.38;81.53
77693;SHT31;66984;47.404;18.836;2023-06-10T04:23:09;19.42;81.55
77693;SHT31;66984;47.404;18.836;2023-06-10T04:24:12;19.41;81.63
77693;SHT31;66984;47.404;18.836;2023-06-10T04:25:22;19.43;81.61
77693;SHT31;66984;47.404;18.836;2023-06-10T04:26:32;19.45;81.54
77693;SHT31;66984;47.404;18.836;2023-06-10T04:27:35;19.45;81.55
77693;SHT31;66984;47.404;18.836;2023-06-10T04:28:38;19.46;81.52
77693;SHT31;66984;47.404;18.836;2023-06-10T04:29:41;19.48;81.49
77693;SHT31;66984;47.404;18.836;2023-06-10T04:30:44;19.49;81.44
77693;SHT31;66984;47.404;18.836;2023-06-10T04:31:55;19.48;81.60
77693;SHT31;66984;47.404;18.836;2023-06-10T04:32:58;19.48;81.59
77693;SHT31;66984;47.404;18.836;2023-06-10T04:34:01;19.49;81.59
77693;SHT31;66984;47.404;18.836;2023-06-10T04:35:05;19.50;81.58
77693;SHT31;66984;47.404;18.836;2023-06-10T04:36:08;19.55;81.54
77693;SHT31;66984;47.404;18.836;2023-06-10T04:37:18;19.56;81.47
77693;SHT31;66984;47.404;18.836;2023-06-10T04:38:21;19.58;81.39
77693;SHT31;66984;47.404;18.836;2023-06-10T04:39:44;19.58;81.40
77693;SHT31;66984;47.404;18.836;2023-06-10T04:40:47;19.58;81.37
77693;SHT31;66984;47.404;18.836;2023-06-10T04:41:57;19.58;81.41
77693;SHT31;66984;47.404;18.836;2023-06-10T04:43:00;19.60;81.45
77693;SHT31;66984;47.404;18.836;2023-06-10T04:44:03;19.62;81.47
77693;SHT31;66984;47.404;18.836;2023-06-10T04:45:06;19.63;81.51
77693;SHT31;66984;47.404;18.836;2023-06-10T04:46:10;19.58;82.06
77693;SHT31;66984;47.404;18.836;2023-06-10T04:47:20;19.56;82.12
77693;SHT31;66984;47.404;18.836;2023-06-10T04:48:43;19.58;82.07
77693;SHT31;66984;47.404;18.836;2023-06-10T04:49:49;19.60;82.06
77693;SHT31;66984;47.404;18.836;2023-06-10T04:50:52;19.65;81.97
77693;SHT31;66984;47.404;18.836;2023-06-10T04:51:55;19.66;81.93
77693;SHT31;66984;47.404;18.836;2023-06-10T04:53:05;19.66;81.81
77693;SHT31;66984;47.404;18.836;2023-06-10T04:54:08;19.65;81.67
77693;SHT31;66984;47.404;18.836;2023-06-10T04:55:11;19.65;81.67
77693;SHT31;66984;47.404;18.836;2023-06-10T04:56:14;19.67;81.70
77693;SHT31;66984;47.404;18.836;2023-06-10T04:57:18;19.73;81.72
77693;SHT31;66984;47.404;18.836;2023-06-10T04:58:29;19.74;81.68
77693;SHT31;66984;47.404;18.836;2023-06-10T04:59:32;19.77;81.65
77693;SHT31;66984;47.404;18.836;2023-06-10T05:00:34;19.80;81.65
77693;SHT31;66984;47.404;18.836;2023-06-10T05:01:37;19.84;81.65
77693;SHT31;66984;47.404;18.836;2023-06-10T05:02:40;19.86;81.62
77693;SHT31;66984;47.404;18.836;2023-06-10T05:03:50;19.90;81.64
77693;SHT31;66984;47.404;18.836;2023-06-10T05:04:53;19.91;81.74
77693;SHT31;66984;47.404;18.836;2023-06-10T05:05:57;19.94;81.77
77693;SHT31;66984;47.404;18.836;2023-06-10T05:07:00;19.97;81.77
77693;SHT31;66984;47.404;18.836;2023-06-10T05:08:03;19.98;81.79
77693;SHT31;66984;47.404;18.836;2023-06-10T05:09:13;20.00;81.79
77693;SHT31;66984;47.404;18.836;2023-06-10T05:10:16;20.03;81.77
77693;SHT31;66984;47.404;18.836;2023-06-10T05:11:19;20.06;81.73
77693;SHT31;66984;47.404;18.836;2023-06-10T05:12:22;20.04;81.77
77693;SHT31;66984;47.404;18.836;2023-06-10T05:13:25;20.06;81.72
77693;SHT31;66984;47.404;18.836;2023-06-10T05:14:34;20.10;81.71
77693;SHT31;66984;47.404;18.836;2023-06-10T05:15:43;20.10;81.63
77693;SHT31;66984;47.404;18.836;2023-06-10T05:17:06;20.16;81.61
77693;SHT31;66984;47.404;18.836;2023-06-10T05:18:10;20.16;81.82
77693;SHT31;66984;47.404;18.836;2023-06-10T05:19:21;20.17;81.82
77693;SHT31;66984;47.404;18.836;2023-06-10T05:20:25;20.18;81.79
77693;SHT31;66984;47.404;18.836;2023-06-10T05:21:28;20.17;81.52
77693;SHT31;66984;47.404;18.836;2023-06-10T05:22:31;20.16;81.45
77693;SHT31;66984;47.404;18.836;2023-06-10T05:23:34;20.21;81.44
77693;SHT31;66984;47.404;18.836;2023-06-10T05:24:44;20.25;81.50
77693;SHT31;66984;47.404;18.836;2023-06-10T05:25:47;20.25;81.57
77693;SHT31;66984;47.404;18.836;2023-06-10T05:26:50;20.28;81.57
77693;SHT31;66984;47.404;18.836;2023-06-10T05:27:53;20.29;81.55
77693;SHT31;66984;47.404;18.836;2023-06-10T05:28:56;20.34;81.47
77693;SHT31;66984;47.404;18.836;2023-06-10T05:30:06;20.37;81.43
77693;SHT31;66984;47.404;18.836;2023-06-10T05:31:10;20.38;81.39
77693;SHT31;66984;47.404;18.836;2023-06-10T05:32:13;20.41;81.47
77693;SHT31;66984;47.404;18.836;2023-06-10T05:33:16;20.47;81.40
77693;SHT31;66984;47.404;18.836;2023-06-10T05:34:19;20.49;81.35
77693;SHT31;66984;47.404;18.836;2023-06-10T05:35:29;20.51;81.23
77693;SHT31;66984;47.404;18.836;2023-06-10T05:36:32;20.53;81.10
77693;SHT31;66984;47.404;18.836;2023-06-10T05:37:35;20.55;81.00
77693;SHT31;66984;47.404;18.836;2023-06-10T05:38:39;20.58;80.85
77693;SHT31;66984;47.404;18.836;2023-06-10T05:39:42;20.59;80.77
77693;SHT31;66984;47.404;18.836;2023-06-10T05:40:52;20.61;80.68
77693;SHT31;66984;47.404;18.836;2023-06-10T05:41:55;20.62;80.66
77693;SHT31;66984;47.404;18.836;2023-06-10T05:42:58;20.64;80.77
77693;SHT31;66984;47.404;18.836;2023-06-10T05:44:01;20.61;80.78
77693;SHT31;66984;47.404;18.836;2023-06-10T05:45:05;20.68;80.81
77693;SHT31;66984;47.404;18.836;2023-06-10T05:46:16;20.69;80.66
77693;SHT31;66984;47.404;18.836;2023-06-10T05:47:19;20.71;80.54
77693;SHT31;66984;47.404;18.836;2023-06-10T05:48:22;20.69;80.60
77693;SHT31;66984;47.404;18.836;2023-06-10T05:49:25;20.71;80.89
77693;SHT31;66984;47.404;18.836;2023-06-10T05:50:28;20.71;81.00
77693;SHT31;66984;47.404;18.836;2023-06-10T05:51:38;20.61;81.77
77693;SHT31;66984;47.404;18.836;2023-06-10T05:52:41;20.62;81.77
77693;SHT31;66984;47.404;18.836;2023-06-10T05:53:44;20.64;81.64
77693;SHT31;66984;47.404;18.836;2023-06-10T05:54:50;20.62;82.47
77693;SHT31;66984;47.404;18.836;2023-06-10T05:55:53;20.62;83.05
77693;SHT31;66984;47.404;18.836;2023-06-10T05:57:06;20.65;82.54
77693;SHT31;66984;47.404;18.836;2023-06-10T05:58:10;20.68;81.82
77693;SHT31;66984;47.404;18.836;2023-06-10T05:59:14;20.64;81.75
77693;SHT31;66984;47.404;18.836;2023-06-10T06:00:18;20.65;81.58
77693;SHT31;66984;47.404;18.836;2023-06-10T06:01:21;20.71;81.14
77693;SHT31;66984;47.404;18.836;2023-06-10T06:02:31;20.66;79.99
77693;SHT31;66984;47.404;18.836;2023-06-10T06:03:34;20.69;79.84
77693;SHT31;66984;47.404;18.836;2023-06-10T06:04:37;20.66;78.97
77693;SHT31;66984;47.404;18.836;2023-06-10T06:05:40;20.69;78.82
77693;SHT31;66984;47.404;18.836;2023-06-10T06:06:43;20.68;78.67
77693;SHT31;66984;47.404;18.836;2023-06-10T06:07:53;20.68;78.17
77693;SHT31;66984;47.404;18.836;2023-06-10T06:08:56;20.66;77.89
77693;SHT31;66984;47.404;18.836;2023-06-10T06:09:59;20.75;79.09
77693;SHT31;66984;47.404;18.836;2023-06-10T06:11:02;20.80;79.66
77693;SHT31;66984;47.404;18.836;2023-06-10T06:12:05;20.85;79.49
77693;SHT31;66984;47.404;18.836;2023-06-10T06:13:16;20.87;79.59
77693;SHT31;66984;47.404;18.836;2023-06-10T06:14:19;20.93;78.01
77693;SHT31;66984;47.404;18.836;2023-06-10T06:15:22;20.97;78.21
77693;SHT31;66984;47.404;18.836;2023-06-10T06:16:32;21.00;78.00
77693;SHT31;66984;47.404;18.836;2023-06-10T06:17:49;21.06;77.08
77693;SHT31;66984;47.404;18.836;2023-06-10T06:18:55;21.07;77.02
77693;SHT31;66984;47.404;18.836;2023-06-10T06:19:58;21.13;76.41
77693;SHT31;66984;47.404;18.836;2023-06-10T06:21:01;21.11;75.83
77693;SHT31;66984;47.404;18.836;2023-06-10T06:22:04;21.14;75.87
77693;SHT31;66984;47.404;18.836;2023-06-10T06:23:13;21.19;76.27
77693;SHT31;66984;47.404;18.836;2023-06-10T06:24:16;21.20;77.76
77693;SHT31;66984;47.404;18.836;2023-06-10T06:25:19;21.26;77.75
77693;SHT31;66984;47.404;18.836;2023-06-10T06:26:22;21.27;77.72
77693;SHT31;66984;47.404;18.836;2023-06-10T06:27:25;21.28;77.82
77693;SHT31;66984;47.404;18.836;2023-06-10T06:28:34;21.31;77.80
77693;SHT31;66984;47.404;18.836;2023-06-10T06:29:37;21.34;77.72
77693;SHT31;66984;47.404;18.836;2023-06-10T06:30:41;21.37;77.60
77693;SHT31;66984;47.404;18.836;2023-06-10T06:31:43;21.38;77.72
77693;SHT31;66984;47.404;18.836;2023-06-10T06:32:46;21.37;77.78
77693;SHT31;66984;47.404;18.836;2023-06-10T06:33:56;21.41;77.74
77693;SHT31;66984;47.404;18.836;2023-06-10T06:34:59;21.41;77.84
77693;SHT31;66984;47.404;18.836;2023-06-10T06:36:02;21.41;77.82
77693;SHT31;66984;47.404;18.836;2023-06-10T06:37:05;21.43;77.82
77693;SHT31;66984;47.404;18.836;2023-06-10T06:38:08;21.47;77.77
77693;SHT31;66984;47.404;18.836;2023-06-10T06:39:18;21.48;77.76
77693;SHT31;66984;47.404;18.836;2023-06-10T06:40:21;21.48;77.72
77693;SHT31;66984;47.404;18.836;2023-06-10T06:41:26;21.51;77.69
77693;SHT31;66984;47.404;18.836;2023-06-10T06:42:29;21.51;77.33
77693;SHT31;66984;47.404;18.836;2023-06-10T06:43:32;21.54;77.13
77693;SHT31;66984;47.404;18.836;2023-06-10T06:44:43;21.54;76.88
77693;SHT31;66984;47.404;18.836;2023-06-10T06:45:46;21.53;76.62
77693;SHT31;66984;47.404;18.836;2023-06-10T06:46:48;21.53;76.49
77693;SHT31;66984;47.404;18.836;2023-06-10T06:47:51;21.47;76.62
77693;SHT31;66984;47.404;18.836;2023-06-10T06:48:54;21.50;76.49
77693;SHT31;66984;47.404;18.836;2023-06-10T06:50:04;21.48;76.10